Pagina principale
METAR-TAF:

METAR-TAF

Aeroporti :

Aeroporto di Lubiana-Brnik

Lubiana, Slovenia

latitudine: 46-13N, longitudine: 014-29E, altezza: 385 m

Osservazione

Il bollettino è stato emesso 13 minuti fa, alle 10:00 UTC
Vento 8 kt da est/sud-est, variando fra est e sud/sud-est
Temperature 6°C
Umidità 45%
Pressione 1018 hPa
Visibilità 10 km o più
Poco nuvoloso ad un'altezza di 4000 ft

METAR: LJLJ 091000Z 12008KT 090V160 9999 FEW040 06/M05 Q1018 NOSIG

Ora: 11:13 (10:13 UTC)

Previsione

Il bollettino è stato emesso 5 ore e 13 minuti fa, alle 05:00 UTC
Previsione valida dal 09 alle 06 UTC al 10 alle 06 UTC
Vento 5 kt da sud-est
Visibilità 10 km o più
Poco nuvoloso ad un'altezza di 3800 ft
Nuvoloso ad un'altezza di 5000 ft
Probabilità 40% :
Temporaneamente
dal 09 alle 11 UTC al 09 alle 17 UTC
Vento 12 kt da est/sud-est

TAF: LJLJ 090500Z 0906/1006 13005KT 9999 FEW038 BKN050 PROB40 TEMPO 0911/0917 12012KT

Osservazioni e previsioni meteorologiche di più di 4000 aeroporti (messaggi METAR e TAF).

Le stazioni disponibili sono rappresentate dai dischi gialli e rossi sulla carta.

Puntare il mouse per vedere il nome della stazione.

Clicca sopra per visualizzare le osservazioni e previsioni meteorologiche.

Per cambiare la mappa : fare clic sui pulsanti verdi con una croce nera per ingrandire, il pulsante verde con un trattino per diminuire, o sulla freccia verde per le mappe adiacenti.


METAR-TAF: